sensor_id;sensor_type;location;lat;lon;timestamp;P1;durP1;ratioP1;P2;durP2;ratioP2
63110;SDS011;49201;53.426;10.300;2023-03-11T00:02:09;25.17;;;17.80;;
63110;SDS011;49201;53.426;10.300;2023-03-11T00:04:35;23.80;;;15.60;;
63110;SDS011;49201;53.426;10.300;2023-03-11T00:07:00;26.83;;;17.20;;
63110;SDS011;49201;53.426;10.300;2023-03-11T00:09:26;22.93;;;16.30;;
63110;SDS011;49201;53.426;10.300;2023-03-11T00:11:51;27.13;;;15.87;;
63110;SDS011;49201;53.426;10.300;2023-03-11T00:14:17;24.93;;;15.83;;
63110;SDS011;49201;53.426;10.300;2023-03-11T00:16:42;21.00;;;15.60;;
63110;SDS011;49201;53.426;10.300;2023-03-11T00:19:08;24.37;;;16.67;;
63110;SDS011;49201;53.426;10.300;2023-03-11T00:21:34;24.13;;;15.80;;
63110;SDS011;49201;53.426;10.300;2023-03-11T00:24:00;23.67;;;15.60;;
63110;SDS011;49201;53.426;10.300;2023-03-11T00:26:27;23.17;;;14.90;;
63110;SDS011;49201;53.426;10.300;2023-03-11T00:28:53;21.87;;;15.50;;
63110;SDS011;49201;53.426;10.300;2023-03-11T00:31:20;21.03;;;15.13;;
63110;SDS011;49201;53.426;10.300;2023-03-11T00:33:46;20.90;;;14.37;;
63110;SDS011;49201;53.426;10.300;2023-03-11T00:36:19;21.20;;;15.47;;
63110;SDS011;49201;53.426;10.300;2023-03-11T00:38:48;20.47;;;14.80;;
63110;SDS011;49201;53.426;10.300;2023-03-11T00:41:14;21.10;;;15.00;;
63110;SDS011;49201;53.426;10.300;2023-03-11T00:43:39;25.30;;;16.77;;
63110;SDS011;49201;53.426;10.300;2023-03-11T00:46:04;24.07;;;16.90;;
63110;SDS011;49201;53.426;10.300;2023-03-11T00:48:30;22.47;;;16.07;;
63110;SDS011;49201;53.426;10.300;2023-03-11T00:50:56;24.67;;;16.73;;
63110;SDS011;49201;53.426;10.300;2023-03-11T00:53:22;24.77;;;16.43;;
63110;SDS011;49201;53.426;10.300;2023-03-11T00:55:48;22.73;;;16.97;;
63110;SDS011;49201;53.426;10.300;2023-03-11T00:58:13;26.07;;;17.43;;
63110;SDS011;49201;53.426;10.300;2023-03-11T01:00:43;25.63;;;17.63;;
63110;SDS011;49201;53.426;10.300;2023-03-11T01:03:09;26.23;;;18.00;;
63110;SDS011;49201;53.426;10.300;2023-03-11T01:05:34;26.13;;;18.33;;
63110;SDS011;49201;53.426;10.300;2023-03-11T01:08:00;25.67;;;18.63;;
63110;SDS011;49201;53.426;10.300;2023-03-11T01:10:28;25.47;;;18.13;;
63110;SDS011;49201;53.426;10.300;2023-03-11T01:12:55;28.53;;;19.37;;
63110;SDS011;49201;53.426;10.300;2023-03-11T01:15:22;27.67;;;18.97;;
63110;SDS011;49201;53.426;10.300;2023-03-11T01:17:57;28.40;;;19.37;;
63110;SDS011;49201;53.426;10.300;2023-03-11T01:20:23;27.10;;;19.10;;
63110;SDS011;49201;53.426;10.300;2023-03-11T01:22:49;28.63;;;19.17;;
63110;SDS011;49201;53.426;10.300;2023-03-11T01:25:15;28.50;;;19.50;;
63110;SDS011;49201;53.426;10.300;2023-03-11T01:27:43;28.23;;;19.03;;
63110;SDS011;49201;53.426;10.300;2023-03-11T01:30:09;29.53;;;19.93;;
63110;SDS011;49201;53.426;10.300;2023-03-11T01:32:38;28.00;;;19.23;;
63110;SDS011;49201;53.426;10.300;2023-03-11T01:35:04;28.17;;;19.20;;
63110;SDS011;49201;53.426;10.300;2023-03-11T01:37:30;29.83;;;19.80;;
63110;SDS011;49201;53.426;10.300;2023-03-11T01:39:56;29.87;;;18.50;;
63110;SDS011;49201;53.426;10.300;2023-03-11T01:42:21;30.93;;;19.73;;
63110;SDS011;49201;53.426;10.300;2023-03-11T01:44:47;29.60;;;19.47;;
63110;SDS011;49201;53.426;10.300;2023-03-11T01:49:38;28.23;;;20.20;;
63110;SDS011;49201;53.426;10.300;2023-03-11T01:52:06;28.43;;;19.53;;
63110;SDS011;49201;53.426;10.300;2023-03-11T01:54:38;28.73;;;20.10;;
63110;SDS011;49201;53.426;10.300;2023-03-11T01:57:06;31.03;;;20.30;;
63110;SDS011;49201;53.426;10.300;2023-03-11T01:59:38;29.23;;;19.90;;
63110;SDS011;49201;53.426;10.300;2023-03-11T02:02:11;30.03;;;19.63;;
63110;SDS011;49201;53.426;10.300;2023-03-11T02:04:41;29.97;;;20.50;;
63110;SDS011;49201;53.426;10.300;2023-03-11T02:07:08;30.50;;;20.50;;
63110;SDS011;49201;53.426;10.300;2023-03-11T02:09:35;30.13;;;19.47;;
63110;SDS011;49201;53.426;10.300;2023-03-11T02:12:02;29.00;;;19.57;;
63110;SDS011;49201;53.426;10.300;2023-03-11T02:14:29;29.10;;;18.83;;
63110;SDS011;49201;53.426;10.300;2023-03-11T02:16:55;27.83;;;19.63;;
63110;SDS011;49201;53.426;10.300;2023-03-11T02:22:23;27.20;;;18.33;;
63110;SDS011;49201;53.426;10.300;2023-03-11T02:25:02;29.93;;;19.83;;
63110;SDS011;49201;53.426;10.300;2023-03-11T02:27:35;27.97;;;19.33;;
63110;SDS011;49201;53.426;10.300;2023-03-11T02:30:07;26.87;;;18.73;;
63110;SDS011;49201;53.426;10.300;2023-03-11T02:32:36;27.30;;;18.20;;
63110;SDS011;49201;53.426;10.300;2023-03-11T02:35:02;27.43;;;19.17;;
63110;SDS011;49201;53.426;10.300;2023-03-11T02:37:29;25.20;;;18.03;;
63110;SDS011;49201;53.426;10.300;2023-03-11T02:40:22;27.00;;;19.53;;
63110;SDS011;49201;53.426;10.300;2023-03-11T02:42:55;27.07;;;17.63;;
63110;SDS011;49201;53.426;10.300;2023-03-11T02:45:24;26.23;;;18.60;;
63110;SDS011;49201;53.426;10.300;2023-03-11T02:47:51;26.10;;;17.30;;
63110;SDS011;49201;53.426;10.300;2023-03-11T02:50:19;27.47;;;17.63;;
63110;SDS011;49201;53.426;10.300;2023-03-11T02:52:47;26.37;;;18.67;;
63110;SDS011;49201;53.426;10.300;2023-03-11T02:55:13;24.50;;;17.47;;
63110;SDS011;49201;53.426;10.300;2023-03-11T02:57:40;23.03;;;16.40;;
63110;SDS011;49201;53.426;10.300;2023-03-11T03:00:06;25.50;;;17.33;;
63110;SDS011;49201;53.426;10.300;2023-03-11T03:02:39;23.57;;;16.93;;
63110;SDS011;49201;53.426;10.300;2023-03-11T03:05:06;26.27;;;17.00;;
63110;SDS011;49201;53.426;10.300;2023-03-11T03:07:33;22.77;;;16.57;;
63110;SDS011;49201;53.426;10.300;2023-03-11T03:09:59;23.73;;;16.13;;
63110;SDS011;49201;53.426;10.300;2023-03-11T03:12:25;24.27;;;17.00;;
63110;SDS011;49201;53.426;10.300;2023-03-11T03:14:50;24.30;;;16.47;;
63110;SDS011;49201;53.426;10.300;2023-03-11T03:17:16;25.43;;;16.70;;
63110;SDS011;49201;53.426;10.300;2023-03-11T03:19:42;21.83;;;16.53;;
63110;SDS011;49201;53.426;10.300;2023-03-11T03:22:07;24.90;;;16.73;;
63110;SDS011;49201;53.426;10.300;2023-03-11T03:24:33;25.13;;;16.10;;
63110;SDS011;49201;53.426;10.300;2023-03-11T03:26:58;23.70;;;16.23;;
63110;SDS011;49201;53.426;10.300;2023-03-11T03:29:24;22.53;;;16.47;;
63110;SDS011;49201;53.426;10.300;2023-03-11T03:31:50;24.47;;;16.87;;
63110;SDS011;49201;53.426;10.300;2023-03-11T03:34:15;22.87;;;16.43;;
63110;SDS011;49201;53.426;10.300;2023-03-11T03:36:41;25.47;;;17.53;;
63110;SDS011;49201;53.426;10.300;2023-03-11T03:39:06;23.50;;;16.67;;
63110;SDS011;49201;53.426;10.300;2023-03-11T03:41:34;24.80;;;16.73;;
63110;SDS011;49201;53.426;10.300;2023-03-11T03:44:01;24.00;;;16.93;;
63110;SDS011;49201;53.426;10.300;2023-03-11T03:46:28;22.07;;;16.13;;
63110;SDS011;49201;53.426;10.300;2023-03-11T03:48:56;21.63;;;15.50;;
63110;SDS011;49201;53.426;10.300;2023-03-11T03:51:21;22.37;;;16.23;;
63110;SDS011;49201;53.426;10.300;2023-03-11T03:53:59;23.57;;;15.60;;
63110;SDS011;49201;53.426;10.300;2023-03-11T03:56:25;23.33;;;15.47;;
63110;SDS011;49201;53.426;10.300;2023-03-11T03:58:51;19.90;;;15.07;;
63110;SDS011;49201;53.426;10.300;2023-03-11T04:01:18;21.47;;;15.00;;
63110;SDS011;49201;53.426;10.300;2023-03-11T04:03:44;20.87;;;15.37;;
63110;SDS011;49201;53.426;10.300;2023-03-11T04:06:16;20.97;;;15.53;;
63110;SDS011;49201;53.426;10.300;2023-03-11T04:08:52;21.23;;;15.33;;
63110;SDS011;49201;53.426;10.300;2023-03-11T04:11:21;20.30;;;15.00;;
63110;SDS011;49201;53.426;10.300;2023-03-11T04:13:47;23.03;;;15.90;;
63110;SDS011;49201;53.426;10.300;2023-03-11T04:16:16;22.90;;;15.67;;
63110;SDS011;49201;53.426;10.300;2023-03-11T04:18:44;21.97;;;15.20;;
63110;SDS011;49201;53.426;10.300;2023-03-11T04:21:10;21.27;;;14.50;;
63110;SDS011;49201;53.426;10.300;2023-03-11T04:23:36;19.10;;;13.90;;
63110;SDS011;49201;53.426;10.300;2023-03-11T04:26:01;19.60;;;14.70;;
63110;SDS011;49201;53.426;10.300;2023-03-11T04:28:28;18.83;;;13.90;;
63110;SDS011;49201;53.426;10.300;2023-03-11T04:30:54;19.30;;;13.60;;
63110;SDS011;49201;53.426;10.300;2023-03-11T04:33:19;19.17;;;13.60;;
63110;SDS011;49201;53.426;10.300;2023-03-11T04:35:45;18.37;;;13.40;;
63110;SDS011;49201;53.426;10.300;2023-03-11T04:38:11;20.50;;;13.60;;
63110;SDS011;49201;53.426;10.300;2023-03-11T04:40:37;20.67;;;14.20;;
63110;SDS011;49201;53.426;10.300;2023-03-11T04:43:02;19.53;;;13.80;;
63110;SDS011;49201;53.426;10.300;2023-03-11T04:45:28;18.73;;;13.50;;
63110;SDS011;49201;53.426;10.300;2023-03-11T04:47:56;19.33;;;13.47;;
63110;SDS011;49201;53.426;10.300;2023-03-11T04:50:21;17.60;;;12.87;;
63110;SDS011;49201;53.426;10.300;2023-03-11T04:52:47;19.87;;;13.80;;
63110;SDS011;49201;53.426;10.300;2023-03-11T04:55:13;19.97;;;12.80;;
63110;SDS011;49201;53.426;10.300;2023-03-11T04:57:41;22.03;;;14.37;;
63110;SDS011;49201;53.426;10.300;2023-03-11T05:00:10;19.80;;;14.27;;
63110;SDS011;49201;53.426;10.300;2023-03-11T05:02:40;24.13;;;14.00;;
63110;SDS011;49201;53.426;10.300;2023-03-11T05:05:07;20.43;;;13.60;;
63110;SDS011;49201;53.426;10.300;2023-03-11T05:07:34;19.53;;;13.40;;
63110;SDS011;49201;53.426;10.300;2023-03-11T05:10:01;19.63;;;13.87;;
63110;SDS011;49201;53.426;10.300;2023-03-11T05:12:28;21.63;;;13.70;;
63110;SDS011;49201;53.426;10.300;2023-03-11T05:14:54;21.53;;;13.80;;
63110;SDS011;49201;53.426;10.300;2023-03-11T05:17:21;19.67;;;13.23;;
63110;SDS011;49201;53.426;10.300;2023-03-11T05:19:48;18.40;;;13.33;;
63110;SDS011;49201;53.426;10.300;2023-03-11T05:22:21;18.03;;;12.60;;
63110;SDS011;49201;53.426;10.300;2023-03-11T05:24:47;19.57;;;13.37;;
63110;SDS011;49201;53.426;10.300;2023-03-11T05:27:13;22.67;;;14.00;;
63110;SDS011;49201;53.426;10.300;2023-03-11T05:29:43;22.43;;;13.63;;
63110;SDS011;49201;53.426;10.300;2023-03-11T05:32:10;20.63;;;13.80;;
63110;SDS011;49201;53.426;10.300;2023-03-11T05:34:37;24.10;;;15.23;;
63110;SDS011;49201;53.426;10.300;2023-03-11T05:37:03;20.77;;;14.63;;
63110;SDS011;49201;53.426;10.300;2023-03-11T05:39:30;22.90;;;16.17;;
63110;SDS011;49201;53.426;10.300;2023-03-11T05:41:55;24.57;;;16.10;;
63110;SDS011;49201;53.426;10.300;2023-03-11T05:44:21;24.33;;;16.00;;
63110;SDS011;49201;53.426;10.300;2023-03-11T05:46:47;23.70;;;15.50;;
63110;SDS011;49201;53.426;10.300;2023-03-11T05:49:13;25.43;;;16.63;;
63110;SDS011;49201;53.426;10.300;2023-03-11T05:51:39;22.57;;;15.57;;
63110;SDS011;49201;53.426;10.300;2023-03-11T05:54:04;22.90;;;16.17;;
63110;SDS011;49201;53.426;10.300;2023-03-11T05:56:37;23.87;;;15.80;;
63110;SDS011;49201;53.426;10.300;2023-03-11T05:59:03;23.00;;;16.30;;
63110;SDS011;49201;53.426;10.300;2023-03-11T06:01:32;21.53;;;15.17;;
63110;SDS011;49201;53.426;10.300;2023-03-11T06:03:58;22.00;;;14.33;;
63110;SDS011;49201;53.426;10.300;2023-03-11T06:06:24;23.03;;;15.47;;
63110;SDS011;49201;53.426;10.300;2023-03-11T06:08:50;24.00;;;15.90;;
63110;SDS011;49201;53.426;10.300;2023-03-11T06:11:18;23.27;;;15.13;;
63110;SDS011;49201;53.426;10.300;2023-03-11T06:13:44;21.90;;;14.77;;
63110;SDS011;49201;53.426;10.300;2023-03-11T06:16:09;22.77;;;15.93;;
63110;SDS011;49201;53.426;10.300;2023-03-11T06:18:35;20.07;;;13.77;;
63110;SDS011;49201;53.426;10.300;2023-03-11T06:21:03;20.83;;;14.33;;
63110;SDS011;49201;53.426;10.300;2023-03-11T06:23:30;21.90;;;13.83;;
63110;SDS011;49201;53.426;10.300;2023-03-11T06:26:03;21.27;;;14.30;;
63110;SDS011;49201;53.426;10.300;2023-03-11T06:28:34;17.10;;;12.47;;
63110;SDS011;49201;53.426;10.300;2023-03-11T06:31:16;17.60;;;12.23;;
63110;SDS011;49201;53.426;10.300;2023-03-11T06:33:44;19.97;;;13.30;;
63110;SDS011;49201;53.426;10.300;2023-03-11T06:36:11;20.30;;;13.40;;
63110;SDS011;49201;53.426;10.300;2023-03-11T06:38:38;21.87;;;14.23;;
63110;SDS011;49201;53.426;10.300;2023-03-11T06:41:04;21.60;;;13.53;;
63110;SDS011;49201;53.426;10.300;2023-03-11T06:43:32;19.53;;;12.57;;
63110;SDS011;49201;53.426;10.300;2023-03-11T06:46:00;18.80;;;12.63;;
63110;SDS011;49201;53.426;10.300;2023-03-11T06:48:26;20.40;;;13.10;;
63110;SDS011;49201;53.426;10.300;2023-03-11T06:50:53;20.00;;;13.13;;
63110;SDS011;49201;53.426;10.300;2023-03-11T06:53:23;20.90;;;13.43;;
63110;SDS011;49201;53.426;10.300;2023-03-11T06:55:59;24.27;;;12.63;;
63110;SDS011;49201;53.426;10.300;2023-03-11T06:58:40;17.73;;;12.00;;
63110;SDS011;49201;53.426;10.300;2023-03-11T07:01:09;18.87;;;11.77;;
63110;SDS011;49201;53.426;10.300;2023-03-11T07:03:37;16.03;;;10.83;;
63110;SDS011;49201;53.426;10.300;2023-03-11T07:06:02;15.10;;;11.57;;
63110;SDS011;49201;53.426;10.300;2023-03-11T07:08:28;16.10;;;10.57;;
63110;SDS011;49201;53.426;10.300;2023-03-11T07:11:05;17.73;;;11.40;;
63110;SDS011;49201;53.426;10.300;2023-03-11T07:13:33;15.40;;;10.77;;
63110;SDS011;49201;53.426;10.300;2023-03-11T07:16:07;17.13;;;10.83;;
63110;SDS011;49201;53.426;10.300;2023-03-11T07:18:37;14.90;;;10.60;;
63110;SDS011;49201;53.426;10.300;2023-03-11T07:21:03;18.30;;;10.83;;
63110;SDS011;49201;53.426;10.300;2023-03-11T07:23:30;14.90;;;10.90;;
63110;SDS011;49201;53.426;10.300;2023-03-11T07:25:56;13.13;;;10.00;;
63110;SDS011;49201;53.426;10.300;2023-03-11T07:28:22;17.53;;;10.03;;
63110;SDS011;49201;53.426;10.300;2023-03-11T07:30:49;13.70;;;10.17;;
63110;SDS011;49201;53.426;10.300;2023-03-11T07:33:15;12.80;;;8.90;;
63110;SDS011;49201;53.426;10.300;2023-03-11T07:35:41;11.73;;;9.57;;
63110;SDS011;49201;53.426;10.300;2023-03-11T07:38:07;12.97;;;9.20;;
63110;SDS011;49201;53.426;10.300;2023-03-11T07:40:33;12.60;;;9.37;;
63110;SDS011;49201;53.426;10.300;2023-03-11T07:42:59;14.17;;;8.93;;
63110;SDS011;49201;53.426;10.300;2023-03-11T07:45:24;10.07;;;8.13;;
63110;SDS011;49201;53.426;10.300;2023-03-11T07:47:50;11.10;;;8.20;;
63110;SDS011;49201;53.426;10.300;2023-03-11T07:50:15;11.60;;;8.03;;
63110;SDS011;49201;53.426;10.300;2023-03-11T07:52:42;12.00;;;8.00;;
63110;SDS011;49201;53.426;10.300;2023-03-11T07:55:07;9.43;;;7.47;;
63110;SDS011;49201;53.426;10.300;2023-03-11T07:57:33;11.70;;;7.40;;
63110;SDS011;49201;53.426;10.300;2023-03-11T07:59:59;10.30;;;7.27;;
63110;SDS011;49201;53.426;10.300;2023-03-11T08:02:25;9.13;;;7.30;;
63110;SDS011;49201;53.426;10.300;2023-03-11T08:04:50;9.60;;;7.77;;
63110;SDS011;49201;53.426;10.300;2023-03-11T08:07:15;11.23;;;8.07;;
63110;SDS011;49201;53.426;10.300;2023-03-11T08:09:41;10.83;;;7.27;;
63110;SDS011;49201;53.426;10.300;2023-03-11T08:12:06;12.23;;;7.83;;
63110;SDS011;49201;53.426;10.300;2023-03-11T08:14:32;12.80;;;7.93;;
63110;SDS011;49201;53.426;10.300;2023-03-11T08:16:58;10.07;;;6.33;;
63110;SDS011;49201;53.426;10.300;2023-03-11T08:19:23;8.50;;;6.30;;
63110;SDS011;49201;53.426;10.300;2023-03-11T08:21:49;7.87;;;6.40;;
63110;SDS011;49201;53.426;10.300;2023-03-11T08:24:14;7.80;;;6.30;;
63110;SDS011;49201;53.426;10.300;2023-03-11T08:26:40;7.90;;;5.93;;
63110;SDS011;49201;53.426;10.300;2023-03-11T08:29:06;9.10;;;6.80;;
63110;SDS011;49201;53.426;10.300;2023-03-11T08:31:32;7.77;;;6.20;;
63110;SDS011;49201;53.426;10.300;2023-03-11T08:34:03;8.57;;;6.80;;
63110;SDS011;49201;53.426;10.300;2023-03-11T08:36:31;7.33;;;5.67;;
63110;SDS011;49201;53.426;10.300;2023-03-11T08:38:57;9.00;;;5.87;;
63110;SDS011;49201;53.426;10.300;2023-03-11T08:41:22;8.27;;;5.93;;
63110;SDS011;49201;53.426;10.300;2023-03-11T08:43:48;7.60;;;5.40;;
63110;SDS011;49201;53.426;10.300;2023-03-11T08:46:29;5.70;;;4.63;;
63110;SDS011;49201;53.426;10.300;2023-03-11T08:48:57;7.67;;;5.17;;
63110;SDS011;49201;53.426;10.300;2023-03-11T08:51:23;7.93;;;5.50;;
63110;SDS011;49201;53.426;10.300;2023-03-11T08:53:50;8.53;;;5.87;;
63110;SDS011;49201;53.426;10.300;2023-03-11T08:56:16;9.40;;;4.70;;
63110;SDS011;49201;53.426;10.300;2023-03-11T08:58:42;8.33;;;5.73;;
63110;SDS011;49201;53.426;10.300;2023-03-11T09:01:09;7.63;;;4.67;;
63110;SDS011;49201;53.426;10.300;2023-03-11T09:03:36;6.33;;;4.97;;
63110;SDS011;49201;53.426;10.300;2023-03-11T09:06:03;9.03;;;5.27;;
63110;SDS011;49201;53.426;10.300;2023-03-11T09:08:31;6.57;;;4.80;;
63110;SDS011;49201;53.426;10.300;2023-03-11T09:10:57;8.47;;;4.83;;
63110;SDS011;49201;53.426;10.300;2023-03-11T09:13:22;7.90;;;4.70;;
63110;SDS011;49201;53.426;10.300;2023-03-11T09:15:48;5.03;;;4.53;;
63110;SDS011;49201;53.426;10.300;2023-03-11T09:18:15;5.90;;;4.73;;
63110;SDS011;49201;53.426;10.300;2023-03-11T09:20:41;6.03;;;4.35;;
63110;SDS011;49201;53.426;10.300;2023-03-11T09:23:08;7.97;;;4.60;;
63110;SDS011;49201;53.426;10.300;2023-03-11T09:25:34;5.63;;;4.35;;
63110;SDS011;49201;53.426;10.300;2023-03-11T09:28:00;4.93;;;4.43;;
63110;SDS011;49201;53.426;10.300;2023-03-11T09:30:25;5.25;;;4.60;;
63110;SDS011;49201;53.426;10.300;2023-03-11T09:32:51;5.32;;;4.68;;
63110;SDS011;49201;53.426;10.300;2023-03-11T09:35:16;5.38;;;4.85;;
63110;SDS011;49201;53.426;10.300;2023-03-11T09:37:42;5.18;;;4.68;;
63110;SDS011;49201;53.426;10.300;2023-03-11T09:40:09;5.28;;;4.45;;
63110;SDS011;49201;53.426;10.300;2023-03-11T09:43:23;4.78;;;4.20;;
63110;SDS011;49201;53.426;10.300;2023-03-11T09:45:40;4.32;;;3.80;;
63110;SDS011;49201;53.426;10.300;2023-03-11T09:48:23;6.00;;;3.92;;
63110;SDS011;49201;53.426;10.300;2023-03-11T09:51:08;4.68;;;3.63;;
63110;SDS011;49201;53.426;10.300;2023-03-11T09:53:42;5.07;;;3.80;;
63110;SDS011;49201;53.426;10.300;2023-03-11T09:56:16;4.97;;;3.85;;
63110;SDS011;49201;53.426;10.300;2023-03-11T10:03:45;4.78;;;3.45;;
63110;SDS011;49201;53.426;10.300;2023-03-11T10:06:20;6.35;;;3.80;;
63110;SDS011;49201;53.426;10.300;2023-03-11T10:17:17;4.97;;;3.67;;
63110;SDS011;49201;53.426;10.300;2023-03-11T10:19:54;3.78;;;3.38;;
63110;SDS011;49201;53.426;10.300;2023-03-11T10:25:18;4.85;;;3.15;;
63110;SDS011;49201;53.426;10.300;2023-03-11T10:27:49;4.82;;;2.88;;
63110;SDS011;49201;53.426;10.300;2023-03-11T10:30:32;4.13;;;3.00;;
63110;SDS011;49201;53.426;10.300;2023-03-11T10:33:05;5.00;;;3.00;;
63110;SDS011;49201;53.426;10.300;2023-03-11T10:35:37;3.67;;;3.30;;
63110;SDS011;49201;53.426;10.300;2023-03-11T10:38:13;4.70;;;3.20;;
63110;SDS011;49201;53.426;10.300;2023-03-11T10:40:44;4.75;;;3.65;;
63110;SDS011;49201;53.426;10.300;2023-03-11T10:43:23;5.63;;;3.80;;
63110;SDS011;49201;53.426;10.300;2023-03-11T10:45:53;5.82;;;3.53;;
63110;SDS011;49201;53.426;10.300;2023-03-11T10:48:19;3.92;;;3.25;;
63110;SDS011;49201;53.426;10.300;2023-03-11T10:53:18;3.17;;;2.88;;
63110;SDS011;49201;53.426;10.300;2023-03-11T10:55:52;3.88;;;3.22;;
63110;SDS011;49201;53.426;10.300;2023-03-11T10:58:22;4.43;;;3.08;;
63110;SDS011;49201;53.426;10.300;2023-03-11T11:01:03;3.35;;;3.05;;
63110;SDS011;49201;53.426;10.300;2023-03-11T11:03:40;5.03;;;3.20;;
63110;SDS011;49201;53.426;10.300;2023-03-11T11:06:09;4.25;;;3.20;;
63110;SDS011;49201;53.426;10.300;2023-03-11T11:08:45;3.28;;;2.92;;
63110;SDS011;49201;53.426;10.300;2023-03-11T11:11:21;3.60;;;2.83;;
63110;SDS011;49201;53.426;10.300;2023-03-11T11:13:58;3.58;;;2.60;;
63110;SDS011;49201;53.426;10.300;2023-03-11T11:16:24;4.78;;;2.78;;
63110;SDS011;49201;53.426;10.300;2023-03-11T11:19:12;4.38;;;2.92;;
63110;SDS011;49201;53.426;10.300;2023-03-11T11:21:39;4.80;;;2.88;;
63110;SDS011;49201;53.426;10.300;2023-03-11T11:27:01;3.50;;;2.85;;
63110;SDS011;49201;53.426;10.300;2023-03-11T11:29:38;7.00;;;2.97;;
63110;SDS011;49201;53.426;10.300;2023-03-11T11:35:14;4.90;;;3.30;;
63110;SDS011;49201;53.426;10.300;2023-03-11T11:37:41;2.92;;;2.53;;
63110;SDS011;49201;53.426;10.300;2023-03-11T11:42:40;3.45;;;2.72;;
63110;SDS011;49201;53.426;10.300;2023-03-11T11:47:35;3.00;;;2.70;;
63110;SDS011;49201;53.426;10.300;2023-03-11T11:50:05;4.20;;;2.60;;
63110;SDS011;49201;53.426;10.300;2023-03-11T11:52:56;4.60;;;2.70;;
63110;SDS011;49201;53.426;10.300;2023-03-11T11:55:29;5.78;;;2.78;;
63110;SDS011;49201;53.426;10.300;2023-03-11T11:57:56;3.97;;;2.70;;
63110;SDS011;49201;53.426;10.300;2023-03-11T12:00:34;3.97;;;2.70;;
63110;SDS011;49201;53.426;10.300;2023-03-11T12:03:18;2.90;;;2.60;;
63110;SDS011;49201;53.426;10.300;2023-03-11T12:06:28;5.22;;;2.83;;
63110;SDS011;49201;53.426;10.300;2023-03-11T12:12:40;4.88;;;2.50;;
63110;SDS011;49201;53.426;10.300;2023-03-11T12:15:19;4.47;;;2.83;;
63110;SDS011;49201;53.426;10.300;2023-03-11T12:18:03;4.95;;;2.53;;
63110;SDS011;49201;53.426;10.300;2023-03-11T12:20:37;3.85;;;2.35;;
63110;SDS011;49201;53.426;10.300;2023-03-11T12:23:10;5.38;;;2.50;;
63110;SDS011;49201;53.426;10.300;2023-03-11T12:28:41;4.22;;;2.60;;
63110;SDS011;49201;53.426;10.300;2023-03-11T12:31:10;5.43;;;2.88;;
63110;SDS011;49201;53.426;10.300;2023-03-11T12:33:44;3.17;;;2.33;;
63110;SDS011;49201;53.426;10.300;2023-03-11T12:36:29;4.80;;;2.47;;
63110;SDS011;49201;53.426;10.300;2023-03-11T12:39:26;3.28;;;2.00;;
63110;SDS011;49201;53.426;10.300;2023-03-11T12:44:38;4.55;;;2.53;;
63110;SDS011;49201;53.426;10.300;2023-03-11T12:49:33;4.30;;;1.95;;
63110;SDS011;49201;53.426;10.300;2023-03-11T12:54:35;2.83;;;2.13;;
63110;SDS011;49201;53.426;10.300;2023-03-11T12:57:25;3.67;;;2.10;;
63110;SDS011;49201;53.426;10.300;2023-03-11T13:08:15;4.93;;;2.30;;
63110;SDS011;49201;53.426;10.300;2023-03-11T13:10:44;5.13;;;2.13;;
63110;SDS011;49201;53.426;10.300;2023-03-11T13:15:49;4.90;;;2.20;;
63110;SDS011;49201;53.426;10.300;2023-03-11T13:18:25;4.90;;;1.90;;
63110;SDS011;49201;53.426;10.300;2023-03-11T13:21:00;3.80;;;2.13;;
63110;SDS011;49201;53.426;10.300;2023-03-11T13:28:28;3.13;;;1.73;;
63110;SDS011;49201;53.426;10.300;2023-03-11T13:42:16;7.97;;;1.90;;
63110;SDS011;49201;53.426;10.300;2023-03-11T13:44:48;3.90;;;1.80;;
63110;SDS011;49201;53.426;10.300;2023-03-11T13:47:15;3.53;;;1.70;;
63110;SDS011;49201;53.426;10.300;2023-03-11T13:57:50;3.63;;;1.83;;
63110;SDS011;49201;53.426;10.300;2023-03-11T14:00:18;6.33;;;1.70;;
63110;SDS011;49201;53.426;10.300;2023-03-11T14:03:10;5.47;;;1.77;;
63110;SDS011;49201;53.426;10.300;2023-03-11T14:05:38;5.83;;;1.80;;
63110;SDS011;49201;53.426;10.300;2023-03-11T14:10:51;4.23;;;1.70;;
63110;SDS011;49201;53.426;10.300;2023-03-11T14:13:30;8.80;;;2.07;;
63110;SDS011;49201;53.426;10.300;2023-03-11T14:18:44;6.20;;;1.93;;
63110;SDS011;49201;53.426;10.300;2023-03-11T14:21:25;6.53;;;1.67;;
63110;SDS011;49201;53.426;10.300;2023-03-11T14:23:52;5.67;;;1.80;;
63110;SDS011;49201;53.426;10.300;2023-03-11T14:26:20;6.37;;;1.83;;
63110;SDS011;49201;53.426;10.300;2023-03-11T14:29:10;3.70;;;1.60;;
63110;SDS011;49201;53.426;10.300;2023-03-11T14:31:44;5.17;;;1.57;;
63110;SDS011;49201;53.426;10.300;2023-03-11T14:34:17;4.63;;;1.80;;
63110;SDS011;49201;53.426;10.300;2023-03-11T14:36:45;3.83;;;1.63;;
63110;SDS011;49201;53.426;10.300;2023-03-11T14:41:57;6.00;;;2.03;;
63110;SDS011;49201;53.426;10.300;2023-03-11T14:44:28;5.33;;;2.07;;
63110;SDS011;49201;53.426;10.300;2023-03-11T14:47:20;4.10;;;1.50;;
63110;SDS011;49201;53.426;10.300;2023-03-11T14:49:42;5.60;;;1.43;;
63110;SDS011;49201;53.426;10.300;2023-03-11T14:52:12;4.40;;;1.80;;
63110;SDS011;49201;53.426;10.300;2023-03-11T14:54:45;5.20;;;1.40;;
63110;SDS011;49201;53.426;10.300;2023-03-11T15:00:01;3.50;;;1.60;;
63110;SDS011;49201;53.426;10.300;2023-03-11T15:02:54;4.30;;;1.67;;
63110;SDS011;49201;53.426;10.300;2023-03-11T15:05:23;5.13;;;1.80;;
63110;SDS011;49201;53.426;10.300;2023-03-11T15:07:58;6.97;;;1.63;;
63110;SDS011;49201;53.426;10.300;2023-03-11T15:10:26;2.97;;;1.50;;
63110;SDS011;49201;53.426;10.300;2023-03-11T15:13:02;5.43;;;1.60;;
63110;SDS011;49201;53.426;10.300;2023-03-11T15:15:29;4.20;;;1.67;;
63110;SDS011;49201;53.426;10.300;2023-03-11T15:17:56;4.90;;;1.63;;
63110;SDS011;49201;53.426;10.300;2023-03-11T15:20:25;5.13;;;1.43;;
63110;SDS011;49201;53.426;10.300;2023-03-11T15:22:59;5.27;;;1.40;;
63110;SDS011;49201;53.426;10.300;2023-03-11T15:25:27;6.07;;;1.40;;
63110;SDS011;49201;53.426;10.300;2023-03-11T15:27:58;2.90;;;1.40;;
63110;SDS011;49201;53.426;10.300;2023-03-11T15:30:25;4.53;;;1.47;;
63110;SDS011;49201;53.426;10.300;2023-03-11T15:32:53;9.33;;;1.70;;
63110;SDS011;49201;53.426;10.300;2023-03-11T15:35:21;5.93;;;1.47;;
63110;SDS011;49201;53.426;10.300;2023-03-11T15:40:49;5.30;;;1.53;;
63110;SDS011;49201;53.426;10.300;2023-03-11T15:43:19;11.87;;;2.27;;
63110;SDS011;49201;53.426;10.300;2023-03-11T15:46:08;4.80;;;1.57;;
63110;SDS011;49201;53.426;10.300;2023-03-11T15:48:35;3.53;;;1.60;;
63110;SDS011;49201;53.426;10.300;2023-03-11T15:51:01;3.40;;;1.50;;
63110;SDS011;49201;53.426;10.300;2023-03-11T15:53:27;3.63;;;1.57;;
63110;SDS011;49201;53.426;10.300;2023-03-11T15:55:54;8.10;;;2.07;;
63110;SDS011;49201;53.426;10.300;2023-03-11T15:58:23;3.13;;;1.70;;
63110;SDS011;49201;53.426;10.300;2023-03-11T16:00:50;5.57;;;2.13;;
63110;SDS011;49201;53.426;10.300;2023-03-11T16:03:18;5.03;;;2.10;;
63110;SDS011;49201;53.426;10.300;2023-03-11T16:05:44;4.63;;;2.13;;
63110;SDS011;49201;53.426;10.300;2023-03-11T16:08:10;5.40;;;2.07;;
63110;SDS011;49201;53.426;10.300;2023-03-11T16:10:36;7.77;;;2.10;;
63110;SDS011;49201;53.426;10.300;2023-03-11T16:13:02;5.57;;;2.13;;